createdAt,value
2023-04-16T00:00:43.253Z,52.25
2023-04-16T00:03:09.946Z,44.33
2023-04-16T00:05:36.600Z,43.17
2023-04-16T00:08:03.157Z,44.88
2023-04-16T00:10:29.703Z,46.65
2023-04-16T00:12:56.293Z,44.13
2023-04-16T00:15:23.004Z,42.80
2023-04-16T00:17:49.930Z,42.90
2023-04-16T00:20:16.694Z,44.55
2023-04-16T00:22:43.334Z,45.65
2023-04-16T00:25:09.929Z,44.08
2023-04-16T00:27:36.472Z,45.42
2023-04-16T00:30:03.493Z,47.40
2023-04-16T00:32:30.532Z,44.35
2023-04-16T00:34:57.218Z,45.13
2023-04-16T00:37:23.820Z,45.08
2023-04-16T00:39:50.836Z,44.75
2023-04-16T00:42:17.399Z,44.58
2023-04-16T00:44:43.976Z,43.83
2023-04-16T00:47:11.437Z,43.47
2023-04-16T00:49:38.204Z,42.35
2023-04-16T00:52:04.909Z,44.20
2023-04-16T00:54:31.978Z,44.10
2023-04-16T00:56:59.492Z,45.95
2023-04-16T00:59:27.117Z,44.17
2023-04-16T01:01:54.171Z,43.50
2023-04-16T01:04:21.413Z,42.80
2023-04-16T01:06:48.120Z,43.75
2023-04-16T01:09:14.936Z,43.30
2023-04-16T01:11:41.489Z,43.45
2023-04-16T01:14:08.165Z,44.78
2023-04-16T01:16:34.755Z,45.28
2023-04-16T01:19:01.357Z,44.10
2023-04-16T01:21:28.077Z,45.97
2023-04-16T01:23:54.690Z,44.22
2023-04-16T01:26:21.545Z,41.30
2023-04-16T01:28:48.063Z,45.83
2023-04-16T01:31:14.682Z,46.08
2023-04-16T01:33:59.405Z,44.78
2023-04-16T01:36:26.865Z,45.85
2023-04-16T01:38:53.409Z,45.53
2023-04-16T01:41:19.977Z,44.53
2023-04-16T01:43:46.625Z,46.83
2023-04-16T01:46:24.957Z,47.25
2023-04-16T01:48:54.612Z,48.15
2023-04-16T01:51:21.874Z,47.00
2023-04-16T01:53:49.855Z,47.78
2023-04-16T01:56:16.846Z,48.38
2023-04-16T01:58:43.410Z,47.08
2023-04-16T02:01:10.323Z,45.95
2023-04-16T02:03:38.317Z,45.22
2023-04-16T02:06:05.448Z,46.47
2023-04-16T02:08:32.442Z,46.97
2023-04-16T02:10:59.646Z,46.17
2023-04-16T02:13:26.539Z,46.90
2023-04-16T02:15:53.634Z,45.15
2023-04-16T02:18:43.051Z,43.88
2023-04-16T02:21:10.793Z,46.13
2023-04-16T02:23:41.031Z,45.03
2023-04-16T02:26:07.563Z,44.58
2023-04-16T02:28:34.255Z,44.88
2023-04-16T02:31:01.103Z,45.40
2023-04-16T02:33:32.988Z,47.15
2023-04-16T02:36:02.950Z,45.92
2023-04-16T02:38:29.708Z,48.22
2023-04-16T02:40:56.312Z,45.28
2023-04-16T02:43:23.000Z,47.10
2023-04-16T02:45:49.643Z,45.55
2023-04-16T02:48:16.309Z,46.10
2023-04-16T02:50:42.917Z,45.55
2023-04-16T02:53:10.634Z,45.13
2023-04-16T02:55:37.193Z,45.17
2023-04-16T02:58:03.804Z,44.78
2023-04-16T03:00:30.350Z,45.58
2023-04-16T03:02:57.121Z,44.47
2023-04-16T03:05:24.022Z,44.58
2023-04-16T03:07:56.322Z,45.65
2023-04-16T03:10:23.579Z,43.90
2023-04-16T03:12:50.389Z,46.22
2023-04-16T03:15:17.049Z,44.70
2023-04-16T03:17:43.666Z,44.60
2023-04-16T03:20:10.651Z,45.15
2023-04-16T03:22:40.923Z,43.90
2023-04-16T03:25:08.598Z,44.60
2023-04-16T03:27:35.581Z,44.55
2023-04-16T03:30:03.249Z,45.67
2023-04-16T03:32:31.086Z,46.97
2023-04-16T03:34:57.667Z,46.97
2023-04-16T03:37:24.405Z,46.40
2023-04-16T03:39:51.183Z,48.40
2023-04-16T03:42:17.737Z,46.53
2023-04-16T03:44:44.372Z,47.00
2023-04-16T03:47:11.308Z,45.78
2023-04-16T03:49:38.099Z,45.80
2023-04-16T03:52:04.791Z,47.85
2023-04-16T03:54:31.466Z,46.28
2023-04-16T03:57:09.156Z,46.92
2023-04-16T03:59:35.797Z,45.67
2023-04-16T04:02:02.387Z,46.55
2023-04-16T04:04:29.103Z,48.22
2023-04-16T04:06:57.482Z,47.17
2023-04-16T04:09:25.716Z,46.50
2023-04-16T04:11:52.960Z,48.92
2023-04-16T04:14:19.547Z,47.83
2023-04-16T04:16:46.243Z,48.65
2023-04-16T04:19:14.446Z,46.47
2023-04-16T04:21:41.886Z,48.42
2023-04-16T04:24:08.892Z,49.67
2023-04-16T04:26:35.510Z,48.85
2023-04-16T04:29:02.075Z,48.88
2023-04-16T04:31:29.982Z,48.95
2023-04-16T04:33:56.650Z,51.70
2023-04-16T04:36:23.248Z,50.10
2023-04-16T04:38:50.183Z,52.05
2023-04-16T04:41:17.178Z,52.55
2023-04-16T04:43:43.829Z,52.22
2023-04-16T04:46:10.538Z,51.78
2023-04-16T04:48:37.143Z,52.83
2023-04-16T04:51:05.268Z,53.05
2023-04-16T04:53:32.406Z,53.00
2023-04-16T04:56:11.094Z,52.13
2023-04-16T04:58:39.298Z,51.38
2023-04-16T05:01:06.121Z,50.97
2023-04-16T05:03:32.887Z,51.92
2023-04-16T05:05:59.543Z,50.35
2023-04-16T05:08:26.219Z,50.05
2023-04-16T05:10:52.787Z,52.13
2023-04-16T05:13:19.428Z,52.63
2023-04-16T05:15:46.078Z,47.83
2023-04-16T05:18:12.666Z,50.13
2023-04-16T05:20:39.187Z,48.47
2023-04-16T05:23:06.033Z,47.30
2023-04-16T05:25:32.568Z,47.50
2023-04-16T05:27:59.133Z,48.25
2023-04-16T05:30:25.712Z,49.10
2023-04-16T05:32:52.258Z,46.50
2023-04-16T05:35:18.875Z,45.53
2023-04-16T05:37:45.540Z,44.80
2023-04-16T05:40:14.033Z,44.47
2023-04-16T05:42:40.912Z,44.92
2023-04-16T05:45:07.984Z,44.58
2023-04-16T05:47:34.569Z,44.40
2023-04-16T05:50:01.095Z,43.17
2023-04-16T05:52:27.589Z,45.33
2023-04-16T05:54:54.144Z,45.13
2023-04-16T05:57:20.790Z,43.42
2023-04-16T05:59:47.369Z,44.53
2023-04-16T06:02:14.080Z,45.17
2023-04-16T06:04:40.722Z,44.90
2023-04-16T06:07:07.300Z,45.58
2023-04-16T06:09:33.846Z,45.30
2023-04-16T06:12:01.082Z,44.67
2023-04-16T06:14:27.661Z,44.25
2023-04-16T06:16:54.310Z,43.30
2023-04-16T06:19:20.944Z,43.55
2023-04-16T06:21:47.628Z,42.03
2023-04-16T06:24:14.254Z,41.95
2023-04-16T06:26:40.814Z,41.85
2023-04-16T06:29:07.495Z,40.83
2023-04-16T06:31:34.354Z,40.13
2023-04-16T06:34:01.306Z,42.58
2023-04-16T06:36:28.987Z,40.95
2023-04-16T06:38:55.803Z,39.25
2023-04-16T06:41:23.575Z,39.88
2023-04-16T06:43:50.145Z,38.65
2023-04-16T06:46:16.747Z,40.33
2023-04-16T06:48:43.337Z,38.63
2023-04-16T06:51:10.105Z,39.88
2023-04-16T06:53:37.521Z,40.72
2023-04-16T06:56:04.560Z,38.42
2023-04-16T06:58:31.147Z,38.47
2023-04-16T07:00:57.820Z,37.83
2023-04-16T07:03:24.672Z,38.15
2023-04-16T07:05:51.337Z,38.45
2023-04-16T07:08:17.920Z,38.35
2023-04-16T07:10:45.140Z,37.42
2023-04-16T07:13:11.739Z,38.25
2023-04-16T07:15:38.330Z,39.42
2023-04-16T07:18:04.919Z,40.70
2023-04-16T07:20:31.616Z,37.90
2023-04-16T07:22:59.388Z,36.47
2023-04-16T07:25:26.867Z,36.55
2023-04-16T07:27:53.641Z,38.80
2023-04-16T07:30:20.648Z,35.75
2023-04-16T07:32:47.263Z,36.15
2023-04-16T07:35:13.876Z,34.65
2023-04-16T07:37:40.492Z,35.70
2023-04-16T07:40:08.112Z,34.90
2023-04-16T07:42:35.232Z,36.33
2023-04-16T07:45:01.766Z,35.42
2023-04-16T07:47:28.316Z,36.15
2023-04-16T07:49:54.879Z,35.75
2023-04-16T07:52:21.417Z,36.88
2023-04-16T07:54:48.082Z,37.42
2023-04-16T07:57:14.574Z,35.40
2023-04-16T07:59:41.200Z,36.55
2023-04-16T08:02:10.800Z,36.08
2023-04-16T08:07:04.265Z,33.03
2023-04-16T08:09:30.871Z,33.47
2023-04-16T08:11:57.599Z,33.83
2023-04-16T08:14:24.168Z,31.83
2023-04-16T08:16:51.101Z,34.72
2023-04-16T08:19:17.869Z,33.75
2023-04-16T08:21:44.455Z,34.58
2023-04-16T08:24:11.803Z,33.22
2023-04-16T08:26:38.452Z,32.38
2023-04-16T08:29:05.165Z,31.63
2023-04-16T08:31:31.990Z,31.55
2023-04-16T08:33:58.942Z,31.10
2023-04-16T08:36:25.631Z,31.40
2023-04-16T08:38:52.237Z,31.92
2023-04-16T08:41:21.816Z,31.75
2023-04-16T08:46:17.712Z,29.17
2023-04-16T08:48:48.681Z,33.17
2023-04-16T08:51:17.231Z,29.33
2023-04-16T08:53:51.606Z,29.55
2023-04-16T08:56:21.309Z,31.50
2023-04-16T08:58:49.998Z,30.55
2023-04-16T09:01:18.419Z,29.53
2023-04-16T09:03:48.108Z,28.70
2023-04-16T09:06:16.366Z,28.40
2023-04-16T09:08:48.845Z,30.65
2023-04-16T09:11:18.258Z,29.65
2023-04-16T09:13:46.297Z,29.73
2023-04-16T09:16:13.759Z,28.75
2023-04-16T09:18:41.255Z,29.90
2023-04-16T09:21:11.115Z,28.95
2023-04-16T09:23:41.104Z,28.48
2023-04-16T09:26:07.672Z,27.98
2023-04-16T09:28:40.869Z,28.27
2023-04-16T09:31:12.731Z,26.92
2023-04-16T09:33:39.467Z,27.15
2023-04-16T09:36:07.530Z,28.15
2023-04-16T09:38:52.368Z,28.10
2023-04-16T09:41:19.735Z,27.40
2023-04-16T09:43:59.961Z,31.13
2023-04-16T09:46:32.713Z,26.75
2023-04-16T09:49:05.462Z,26.05
2023-04-16T09:51:37.723Z,25.77
2023-04-16T09:54:07.724Z,25.48
2023-04-16T09:56:40.472Z,25.98
2023-04-16T09:59:07.456Z,27.17
2023-04-16T10:01:34.122Z,25.80
2023-04-16T10:04:00.950Z,28.50
2023-04-16T10:06:29.251Z,27.45
2023-04-16T10:08:58.542Z,27.88
2023-04-16T10:11:25.916Z,27.60
2023-04-16T10:13:52.520Z,32.53
2023-04-16T10:16:19.098Z,27.73
2023-04-16T10:18:46.876Z,27.05
2023-04-16T10:21:15.301Z,27.88
2023-04-16T10:23:43.572Z,27.90
2023-04-16T10:26:10.452Z,29.63
2023-04-16T10:28:37.117Z,28.17
2023-04-16T10:31:07.406Z,29.00
2023-04-16T10:33:36.498Z,29.05
2023-04-16T10:36:17.263Z,29.20
2023-04-16T10:38:49.315Z,27.05
2023-04-16T10:41:16.472Z,28.85
2023-04-16T10:43:44.891Z,27.67
2023-04-16T10:46:31.511Z,28.33
2023-04-16T10:49:12.297Z,28.30
2023-04-16T10:51:39.154Z,27.23
2023-04-16T10:54:08.425Z,27.50
2023-04-16T10:56:36.533Z,30.10
2023-04-16T10:59:11.119Z,28.70
2023-04-16T11:01:45.294Z,26.95
2023-04-16T11:04:21.121Z,26.67
2023-04-16T11:07:16.263Z,26.58
2023-04-16T11:09:54.837Z,25.95
2023-04-16T11:12:41.567Z,26.63
2023-04-16T11:15:13.268Z,26.23
2023-04-16T11:17:46.577Z,25.55
2023-04-16T11:20:20.940Z,26.33
2023-04-16T11:22:52.545Z,26.50
2023-04-16T11:25:23.503Z,25.90
2023-04-16T11:27:51.175Z,26.25
2023-04-16T11:30:18.875Z,28.35
2023-04-16T11:32:45.975Z,25.08
2023-04-16T11:35:17.649Z,25.33
2023-04-16T11:37:45.282Z,25.77
2023-04-16T11:40:12.697Z,26.42
2023-04-16T11:42:40.819Z,25.92
2023-04-16T11:45:12.759Z,26.13
2023-04-16T11:48:06.142Z,27.23
2023-04-16T11:50:32.940Z,23.65
2023-04-16T11:53:05.438Z,25.30
2023-04-16T11:55:32.093Z,25.50
2023-04-16T11:58:11.925Z,25.13
2023-04-16T12:00:38.589Z,24.38
2023-04-16T12:03:05.319Z,24.58
2023-04-16T12:05:33.881Z,23.92
2023-04-16T12:08:11.195Z,24.02
2023-04-16T12:10:54.880Z,24.05
2023-04-16T12:13:21.687Z,23.55
2023-04-16T12:15:50.222Z,22.52
2023-04-16T12:18:17.763Z,22.65
2023-04-16T12:20:45.421Z,22.77
2023-04-16T12:23:30.693Z,22.40
2023-04-16T12:26:02.333Z,21.58
2023-04-16T12:28:29.826Z,21.42
2023-04-16T12:30:56.528Z,22.10
2023-04-16T12:33:23.335Z,20.95
2023-04-16T12:35:50.620Z,19.60
2023-04-16T12:38:17.456Z,19.63
2023-04-16T12:40:44.761Z,20.05
2023-04-16T12:43:11.406Z,19.27
2023-04-16T12:45:38.783Z,18.95
2023-04-16T12:48:05.586Z,20.08
2023-04-16T12:50:32.562Z,19.08
2023-04-16T12:52:59.480Z,18.38
2023-04-16T12:55:26.142Z,18.63
2023-04-16T12:57:53.050Z,18.20
2023-04-16T13:00:20.015Z,18.80
2023-04-16T13:02:46.987Z,19.50
2023-04-16T13:05:16.552Z,19.08
2023-04-16T13:10:10.419Z,17.38
2023-04-16T13:12:37.156Z,19.08
2023-04-16T13:15:04.272Z,18.15
2023-04-16T13:17:31.216Z,19.80
2023-04-16T13:19:57.826Z,18.00
2023-04-16T13:22:24.432Z,18.42
2023-04-16T13:24:50.969Z,17.35
2023-04-16T13:27:17.951Z,17.98
2023-04-16T13:29:44.829Z,17.35
2023-04-16T13:32:13.688Z,17.17
2023-04-16T13:34:40.550Z,19.52
2023-04-16T13:37:07.119Z,18.17
2023-04-16T13:39:33.854Z,16.90
2023-04-16T13:42:00.620Z,16.80
2023-04-16T13:44:27.163Z,17.70
2023-04-16T13:46:53.857Z,16.13
2023-04-16T13:49:20.599Z,17.77
2023-04-16T13:51:47.163Z,16.65
2023-04-16T13:54:13.710Z,17.65
2023-04-16T13:56:40.829Z,17.25
2023-04-16T13:59:08.165Z,16.88
2023-04-16T14:01:34.980Z,17.33
2023-04-16T14:04:06.443Z,17.17
2023-04-16T14:06:34.645Z,17.27
2023-04-16T14:09:01.877Z,17.20
2023-04-16T14:11:28.785Z,15.75
2023-04-16T14:13:55.582Z,16.52
2023-04-16T14:16:22.327Z,16.38
2023-04-16T14:18:48.946Z,16.55
2023-04-16T14:21:15.596Z,16.45
2023-04-16T14:23:42.263Z,16.10
2023-04-16T14:26:08.959Z,15.88
2023-04-16T14:28:35.776Z,16.45
2023-04-16T14:31:02.527Z,15.75
2023-04-16T14:33:29.222Z,15.55
2023-04-16T14:35:56.050Z,17.52
2023-04-16T14:38:22.754Z,15.70
2023-04-16T14:40:49.322Z,16.98
2023-04-16T14:43:15.908Z,15.88
2023-04-16T14:45:42.621Z,15.43
2023-04-16T14:48:09.285Z,15.18
2023-04-16T14:50:37.906Z,16.70
2023-04-16T14:53:05.211Z,17.57
2023-04-16T14:55:32.210Z,16.08
2023-04-16T14:57:59.664Z,15.60
2023-04-16T15:00:27.259Z,15.70
2023-04-16T15:02:55.058Z,15.85
2023-04-16T15:05:22.197Z,16.95
2023-04-16T15:07:48.878Z,15.27
2023-04-16T15:10:15.525Z,15.52
2023-04-16T15:12:42.111Z,17.17
2023-04-16T15:15:09.878Z,14.55
2023-04-16T15:17:36.818Z,15.50
2023-04-16T15:20:08.169Z,14.70
2023-04-16T15:22:35.229Z,15.07
2023-04-16T15:25:02.197Z,14.77
2023-04-16T15:27:29.030Z,15.15
2023-04-16T15:29:55.682Z,15.40
2023-04-16T15:32:22.506Z,14.85
2023-04-16T15:34:49.067Z,15.23
2023-04-16T15:37:16.034Z,15.35
2023-04-16T15:39:43.184Z,14.65
2023-04-16T15:42:11.162Z,15.60
2023-04-16T15:44:37.774Z,14.73
2023-04-16T15:47:06.212Z,14.98
2023-04-16T15:49:32.820Z,14.15
2023-04-16T15:51:59.575Z,13.98
2023-04-16T15:54:26.379Z,14.32
2023-04-16T15:56:52.927Z,14.45
2023-04-16T15:59:19.532Z,13.88
2023-04-16T16:01:46.307Z,13.93
2023-04-16T16:04:12.997Z,13.70
2023-04-16T16:06:39.725Z,12.43
2023-04-16T16:09:06.284Z,13.48
2023-04-16T16:11:32.914Z,13.68
2023-04-16T16:14:02.917Z,14.10
2023-04-16T16:16:29.677Z,13.50
2023-04-16T16:18:56.445Z,14.00
2023-04-16T16:21:23.039Z,13.90
2023-04-16T16:23:49.629Z,14.35
2023-04-16T16:26:16.203Z,14.20
2023-04-16T16:28:44.610Z,14.25
2023-04-16T16:31:12.256Z,13.20
2023-04-16T16:33:40.447Z,13.77
2023-04-16T16:36:10.823Z,15.05
2023-04-16T16:38:37.960Z,14.05
2023-04-16T16:41:04.607Z,13.98
2023-04-16T16:43:31.410Z,15.45
2023-04-16T16:45:57.985Z,14.57
2023-04-16T16:48:24.952Z,13.93
2023-04-16T16:50:59.118Z,14.98
2023-04-16T16:53:25.717Z,13.73
2023-04-16T16:55:52.245Z,14.70
2023-04-16T16:58:18.850Z,14.88
2023-04-16T17:00:45.525Z,14.95
2023-04-16T17:03:12.157Z,16.10
2023-04-16T17:05:38.909Z,15.38
2023-04-16T17:08:06.586Z,15.60
2023-04-16T17:10:33.123Z,15.77
2023-04-16T17:12:59.646Z,15.98
2023-04-16T17:15:26.367Z,16.25
2023-04-16T17:17:54.712Z,15.18
2023-04-16T17:20:21.384Z,20.02
2023-04-16T17:22:48.027Z,21.52
2023-04-16T17:25:14.832Z,26.83
2023-04-16T17:27:41.435Z,27.45
2023-04-16T17:30:08.592Z,21.70
2023-04-16T17:32:35.276Z,22.23
2023-04-16T17:35:04.163Z,22.38
2023-04-16T17:37:31.077Z,18.27
2023-04-16T17:39:57.675Z,16.10
2023-04-16T17:42:24.691Z,17.42
2023-04-16T17:44:51.463Z,15.55
2023-04-16T17:47:18.047Z,15.80
2023-04-16T17:49:44.815Z,16.33
2023-04-16T17:52:11.348Z,15.45
2023-04-16T17:54:37.894Z,14.35
2023-04-16T17:57:04.458Z,16.25
2023-04-16T17:59:31.158Z,16.02
2023-04-16T18:01:57.878Z,16.10
2023-04-16T18:04:24.630Z,15.80
2023-04-16T18:06:51.318Z,14.82
2023-04-16T18:09:19.256Z,15.35
2023-04-16T18:11:45.849Z,18.85
2023-04-16T18:14:16.566Z,35.25
2023-04-16T18:16:43.169Z,45.72
2023-04-16T18:19:09.771Z,38.90
2023-04-16T18:21:36.357Z,31.27
2023-04-16T18:24:05.290Z,17.58
2023-04-16T18:26:35.651Z,15.82
2023-04-16T18:29:03.099Z,16.30
2023-04-16T18:31:29.735Z,16.48
2023-04-16T18:33:58.387Z,16.52
2023-04-16T18:36:26.934Z,16.40
2023-04-16T18:41:24.016Z,15.77
2023-04-16T18:43:50.854Z,17.42
2023-04-16T18:46:17.736Z,17.65
2023-04-16T18:48:45.125Z,18.02
2023-04-16T18:51:13.243Z,16.55
2023-04-16T18:53:42.286Z,15.20
2023-04-16T18:56:09.004Z,17.63
2023-04-16T18:58:35.606Z,17.58
2023-04-16T19:01:02.926Z,17.20
2023-04-16T19:03:30.326Z,17.75
2023-04-16T19:05:56.977Z,16.13
2023-04-16T19:08:23.573Z,15.88
2023-04-16T19:10:51.144Z,16.42
2023-04-16T19:13:17.886Z,16.67
2023-04-16T19:15:44.405Z,18.20
2023-04-16T19:18:10.965Z,16.73
2023-04-16T19:20:37.902Z,18.35
2023-04-16T19:23:05.704Z,18.52
2023-04-16T19:25:32.642Z,17.77
2023-04-16T19:27:59.451Z,18.83
2023-04-16T19:30:26.426Z,20.60
2023-04-16T19:32:55.185Z,19.38
2023-04-16T19:35:22.527Z,20.05
2023-04-16T19:37:49.176Z,20.38
2023-04-16T19:40:15.840Z,19.55
2023-04-16T19:42:45.116Z,19.73
2023-04-16T19:45:14.529Z,20.98
2023-04-16T19:47:41.210Z,19.60
2023-04-16T19:50:11.023Z,20.60
2023-04-16T19:52:38.893Z,21.55
2023-04-16T19:55:09.029Z,20.30
2023-04-16T19:57:35.784Z,21.20
2023-04-16T20:00:02.563Z,21.95
2023-04-16T20:02:30.766Z,21.73
2023-04-16T20:04:57.412Z,21.83
2023-04-16T20:07:23.920Z,22.48
2023-04-16T20:09:50.547Z,23.60
2023-04-16T20:12:18.457Z,24.65
2023-04-16T20:14:45.022Z,23.92
2023-04-16T20:17:11.594Z,23.23
2023-04-16T20:19:38.392Z,25.70
2023-04-16T20:22:05.081Z,26.25
2023-04-16T20:24:31.900Z,25.52
2023-04-16T20:26:58.405Z,25.67
2023-04-16T20:29:24.958Z,25.52
2023-04-16T20:31:52.175Z,27.05
2023-04-16T20:34:18.730Z,26.38
2023-04-16T20:36:45.727Z,26.15
2023-04-16T20:39:12.665Z,25.67
2023-04-16T20:41:43.993Z,25.73
2023-04-16T20:44:17.986Z,26.67
2023-04-16T20:46:49.353Z,26.63
2023-04-16T20:49:17.603Z,26.13
2023-04-16T20:51:44.399Z,26.38
2023-04-16T20:54:11.063Z,25.70
2023-04-16T20:56:37.592Z,25.73
2023-04-16T20:59:04.275Z,26.80
2023-04-16T21:01:30.968Z,26.95
2023-04-16T21:03:58.842Z,27.13
2023-04-16T21:06:25.601Z,27.58
2023-04-16T21:08:52.141Z,26.15
2023-04-16T21:11:19.157Z,28.13
2023-04-16T21:13:45.778Z,27.42
2023-04-16T21:16:12.489Z,27.35
2023-04-16T21:18:39.146Z,27.98
2023-04-16T21:21:06.038Z,30.33
2023-04-16T21:23:32.633Z,27.67
2023-04-16T21:25:59.198Z,27.50
2023-04-16T21:28:25.796Z,28.83
2023-04-16T21:30:53.062Z,28.60
2023-04-16T21:33:19.626Z,28.20
2023-04-16T21:35:51.723Z,29.60
2023-04-16T21:38:18.749Z,27.95
2023-04-16T21:40:46.670Z,29.08
2023-04-16T21:43:13.195Z,28.67
2023-04-16T21:45:40.925Z,27.40
2023-04-16T21:48:07.673Z,27.38
2023-04-16T21:50:34.299Z,29.63
2023-04-16T21:53:00.836Z,26.38
2023-04-16T21:55:27.381Z,27.10
2023-04-16T21:57:54.126Z,27.58
2023-04-16T22:00:21.313Z,28.10
2023-04-16T22:02:47.957Z,26.63
2023-04-16T22:05:14.684Z,26.88
2023-04-16T22:07:41.295Z,24.90
2023-04-16T22:10:12.402Z,25.25
2023-04-16T22:12:41.030Z,25.33
2023-04-16T22:15:08.952Z,23.92
2023-04-16T22:17:35.855Z,23.80
2023-04-16T22:20:09.671Z,22.45
2023-04-16T22:22:36.359Z,23.08
2023-04-16T22:25:03.390Z,23.35
2023-04-16T22:27:29.967Z,23.42
2023-04-16T22:29:56.617Z,23.08
2023-04-16T22:32:23.314Z,24.60
2023-04-16T22:34:50.032Z,23.58
2023-04-16T22:37:16.548Z,23.42
2023-04-16T22:39:43.165Z,21.60
2023-04-16T22:42:09.723Z,22.80
2023-04-16T22:44:37.023Z,22.92
2023-04-16T22:47:03.561Z,22.92
2023-04-16T22:49:33.095Z,22.92
2023-04-16T22:54:33.319Z,21.77
2023-04-16T22:56:59.861Z,21.08
2023-04-16T22:59:26.448Z,22.15
2023-04-16T23:01:53.187Z,21.63
2023-04-16T23:04:19.947Z,21.60
2023-04-16T23:06:46.732Z,21.33
2023-04-16T23:09:13.547Z,20.65
2023-04-16T23:11:40.544Z,20.55
2023-04-16T23:14:08.232Z,21.48
2023-04-16T23:16:34.876Z,21.38
2023-04-16T23:19:01.435Z,20.95
2023-04-16T23:21:27.980Z,20.95
2023-04-16T23:23:54.751Z,22.00
2023-04-16T23:26:21.307Z,22.15
2023-04-16T23:28:47.905Z,21.20
2023-04-16T23:31:14.473Z,19.92
2023-04-16T23:33:41.085Z,19.85
2023-04-16T23:36:08.221Z,20.42
2023-04-16T23:38:34.800Z,19.88
2023-04-16T23:41:01.426Z,20.00
2023-04-16T23:43:27.957Z,19.77
2023-04-16T23:45:54.653Z,19.65
2023-04-16T23:48:21.377Z,20.17
2023-04-16T23:50:48.028Z,20.63
2023-04-16T23:53:14.658Z,20.90
2023-04-16T23:55:41.168Z,20.83
2023-04-16T23:58:07.736Z,21.70
